Time;durP1;ratioP1;P1;durP2;ratioP2;P2;SDS_P1;SDS_P2;PMS_P1;PMS_P2;Temp;Humidity;BMP_temperature;BMP_pressure;BME280_temperature;BME280_humidity;BME280_pressure;Samples;Min_cycle;Max_cycle;Signal;HPM_P1;HPM_P2
2021/07/03 00:02:14;;;;;;;;;;;27.40;52.60;;;;;;5133351;27;20418;-58
2021/07/03 00:04:41;;;;;;;;;;;27.40;52.60;;;;;;5133029;27;19993;-58
2021/07/03 00:07:09;;;;;;;;;;;27.40;52.60;;;;;;5134691;27;19923;-58
2021/07/03 00:09:37;;;;;;;;;;;27.40;52.60;;;;;;5120056;27;20011;-58
2021/07/03 00:12:06;;;;;;;;;;;27.40;52.70;;;;;;5132987;27;19951;-58
2021/07/03 00:14:34;;;;;;;;;;;27.40;52.70;;;;;;5134053;27;19924;-58
2021/07/03 00:17:02;;;;;;;;;;;27.40;52.70;;;;;;5135599;27;19923;-58
2021/07/03 00:19:29;;;;;;;;;;;27.40;52.70;;;;;;5135362;27;19923;-58
2021/07/03 00:21:56;;;;;;;;;;;27.30;52.70;;;;;;5135619;27;19923;-58
2021/07/03 00:24:23;;;;;;;;;;;27.40;52.70;;;;;;5136699;27;19923;-58
2021/07/03 00:26:50;;;;;;;;;;;27.40;52.70;;;;;;5118310;27;19969;-58
2021/07/03 00:29:17;;;;;;;;;;;27.40;52.70;;;;;;5133393;27;19924;-58
2021/07/03 00:31:44;;;;;;;;;;;27.40;52.70;;;;;;5132449;27;19942;-58
2021/07/03 00:34:11;;;;;;;;;;;27.30;52.70;;;;;;5134041;27;19928;-57
2021/07/03 00:36:38;;;;;;;;;;;27.30;52.70;;;;;;5121599;27;20350;-58
2021/07/03 00:39:05;;;;;;;;;;;27.30;52.70;;;;;;5130587;27;20424;-58
2021/07/03 00:41:32;;;;;;;;;;;27.30;52.70;;;;;;5116664;27;20010;-58
2021/07/03 00:43:59;;;;;;;;;;;27.30;52.70;;;;;;5108092;28;19924;-57
2021/07/03 00:46:26;;;;;;;;;;;27.30;52.70;;;;;;5127853;27;19923;-58
2021/07/03 00:48:53;;;;;;;;;;;27.30;52.70;;;;;;5133423;27;19998;-58
2021/07/03 00:51:20;;;;;;;;;;;27.30;52.70;;;;;;5132874;27;19945;-58
2021/07/03 00:53:47;;;;;;;;;;;27.30;52.70;;;;;;5131756;27;19963;-58
2021/07/03 00:56:14;;;;;;;;;;;27.30;52.70;;;;;;5132150;27;19923;-59
2021/07/03 00:58:41;;;;;;;;;;;27.30;52.70;;;;;;5133159;27;19931;-58
2021/07/03 01:01:08;;;;;;;;;;;27.30;52.70;;;;;;5134235;27;19972;-58
2021/07/03 01:03:35;;;;;;;;;;;27.30;52.80;;;;;;5133944;27;20451;-58
2021/07/03 01:06:02;;;;;;;;;;;27.30;52.70;;;;;;5131684;27;19929;-58
2021/07/03 01:08:29;;;;;;;;;;;27.30;52.80;;;;;;5133446;27;19970;-58
2021/07/03 01:10:56;;;;;;;;;;;27.30;52.80;;;;;;5114999;28;19923;-58
2021/07/03 01:13:26;;;;;;;;;;;27.30;52.80;;;;;;5132886;27;20379;-58
2021/07/03 01:15:54;;;;;;;;;;;27.30;52.80;;;;;;5133284;27;20341;-58
2021/07/03 01:18:21;;;;;;;;;;;27.30;52.80;;;;;;5115318;27;19973;-58
2021/07/03 01:20:51;;;;;;;;;;;27.30;52.80;;;;;;5132274;27;19927;-58
2021/07/03 01:23:18;;;;;;;;;;;27.30;52.90;;;;;;5131834;27;19998;-58
2021/07/03 01:25:45;;;;;;;;;;;27.30;52.90;;;;;;5117069;27;20018;-58
2021/07/03 01:28:12;;;;;;;;;;;27.30;52.90;;;;;;5132360;27;19977;-58
2021/07/03 01:30:39;;;;;;;;;;;27.30;52.90;;;;;;5115384;27;19977;-58
2021/07/03 01:33:06;;;;;;;;;;;27.30;52.90;;;;;;5097601;28;19999;-58
2021/07/03 01:35:34;;;;;;;;;;;27.30;52.90;;;;;;5115896;27;19972;-58
2021/07/03 01:38:01;;;;;;;;;;;27.30;52.90;;;;;;5116709;27;19967;-58
2021/07/03 01:40:28;;;;;;;;;;;27.20;52.80;;;;;;5123834;27;19923;-58
2021/07/03 01:42:55;;;;;;;;;;;27.20;52.80;;;;;;5132067;27;19971;-58
2021/07/03 01:45:22;;;;;;;;;;;27.20;52.90;;;;;;5129561;27;19923;-58
2021/07/03 01:47:49;;;;;;;;;;;27.20;52.90;;;;;;5132942;27;19923;-58
2021/07/03 01:50:16;;;;;;;;;;;27.20;52.90;;;;;;5132620;27;19928;-58
2021/07/03 01:52:43;;;;;;;;;;;27.20;52.90;;;;;;5131071;27;19966;-58
2021/07/03 01:55:12;;;;;;;;;;;27.20;52.90;;;;;;5132295;27;20022;-58
2021/07/03 01:57:39;;;;;;;;;;;27.20;52.90;;;;;;5127259;27;19970;-58
2021/07/03 02:00:07;;;;;;;;;;;27.20;52.90;;;;;;5132012;27;19977;-58
2021/07/03 02:02:34;;;;;;;;;;;27.20;52.90;;;;;;5132812;27;19937;-58
2021/07/03 02:05:03;;;;;;;;;;;27.20;52.90;;;;;;5130626;27;19942;-58
2021/07/03 02:07:29;;;;;;;;;;;27.20;52.90;;;;;;5133036;27;20447;-58
2021/07/03 02:09:56;;;;;;;;;;;27.20;52.90;;;;;;5132926;27;19931;-58
2021/07/03 02:12:24;;;;;;;;;;;27.20;52.90;;;;;;5133527;27;19967;-58
2021/07/03 02:14:50;;;;;;;;;;;27.20;52.90;;;;;;5132516;27;19992;-58
2021/07/03 02:17:17;;;;;;;;;;;27.20;52.90;;;;;;5131882;27;19966;-58
2021/07/03 02:19:45;;;;;;;;;;;27.20;52.90;;;;;;5131527;27;19923;-58
2021/07/03 02:22:11;;;;;;;;;;;27.20;52.90;;;;;;5113734;27;20040;-58
2021/07/03 02:24:38;;;;;;;;;;;27.20;53.50;;;;;;5131331;27;19974;-58
2021/07/03 02:27:05;;;;;;;;;;;27.20;52.90;;;;;;5132514;27;19976;-58
2021/07/03 02:29:32;;;;;;;;;;;27.20;52.90;;;;;;5102954;28;19970;-58
2021/07/03 02:31:59;;;;;;;;;;;27.20;52.90;;;;;;5127221;27;19962;-58
2021/07/03 02:34:26;;;;;;;;;;;27.20;52.90;;;;;;5121781;27;19923;-58
2021/07/03 02:36:53;;;;;;;;;;;27.20;52.90;;;;;;5124570;27;19976;-58
2021/07/03 02:39:20;;;;;;;;;;;27.10;52.80;;;;;;5125139;27;19924;-58
2021/07/03 02:41:47;;;;;;;;;;;27.20;53.00;;;;;;5123247;27;19923;-58
2021/07/03 02:44:14;;;;;;;;;;;27.10;52.90;;;;;;5132286;27;19972;-58
2021/07/03 02:46:41;;;;;;;;;;;27.10;52.80;;;;;;5132779;27;19966;-58
2021/07/03 02:49:08;;;;;;;;;;;27.10;52.90;;;;;;5130008;27;20471;-58
2021/07/03 02:51:35;;;;;;;;;;;27.10;52.80;;;;;;5130678;27;19995;-58
2021/07/03 02:54:02;;;;;;;;;;;27.10;52.80;;;;;;5132499;27;20332;-58
2021/07/03 02:56:29;;;;;;;;;;;27.10;52.80;;;;;;5115399;28;19971;-58
2021/07/03 02:58:56;;;;;;;;;;;27.10;52.80;;;;;;5114066;28;19963;-58
2021/07/03 03:01:23;;;;;;;;;;;27.10;52.90;;;;;;5131931;28;20019;-58
2021/07/03 03:03:50;;;;;;;;;;;27.10;52.90;;;;;;5132194;28;19930;-58
2021/07/03 03:06:16;;;;;;;;;;;27.10;53.50;;;;;;5131455;28;19987;-58
2021/07/03 03:08:44;;;;;;;;;;;27.10;52.80;;;;;;5131539;28;19972;-58
2021/07/03 03:11:11;;;;;;;;;;;27.10;52.80;;;;;;5131321;28;19927;-58
2021/07/03 03:13:38;;;;;;;;;;;27.10;52.80;;;;;;5130783;28;19959;-58
2021/07/03 03:16:05;;;;;;;;;;;27.10;52.80;;;;;;5130970;28;19923;-58
2021/07/03 03:18:32;;;;;;;;;;;27.10;52.80;;;;;;5130967;28;19934;-58
2021/07/03 03:20:59;;;;;;;;;;;27.10;52.80;;;;;;5119099;28;19967;-58
2021/07/03 03:23:26;;;;;;;;;;;27.10;52.80;;;;;;5127531;28;20014;-58
2021/07/03 03:25:53;;;;;;;;;;;27.10;52.80;;;;;;5119329;28;19977;-58
2021/07/03 03:28:20;;;;;;;;;;;27.10;52.80;;;;;;5121773;28;19928;-58
2021/07/03 03:30:47;;;;;;;;;;;27.10;52.80;;;;;;5130789;28;19924;-59
2021/07/03 03:33:13;;;;;;;;;;;27.10;52.80;;;;;;5132275;28;19923;-58
2021/07/03 03:35:41;;;;;;;;;;;27.10;52.80;;;;;;5122570;28;20440;-58
2021/07/03 03:38:08;;;;;;;;;;;27.10;52.80;;;;;;5115129;28;19928;-58
2021/07/03 03:40:35;;;;;;;;;;;27.10;52.70;;;;;;5118604;28;19924;-58
2021/07/03 03:43:01;;;;;;;;;;;27.10;52.70;;;;;;5130930;28;19959;-58
2021/07/03 03:45:29;;;;;;;;;;;27.10;52.70;;;;;;5129351;28;20375;-57
2021/07/03 03:47:56;;;;;;;;;;;27.10;52.70;;;;;;5129651;28;19973;-58
2021/07/03 03:50:23;;;;;;;;;;;27.10;52.60;;;;;;5129246;28;20003;-58
2021/07/03 03:52:50;;;;;;;;;;;27.10;52.60;;;;;;5131961;28;19973;-58
2021/07/03 03:55:17;;;;;;;;;;;27.20;52.70;;;;;;5129790;28;19967;-58
2021/07/03 03:57:45;;;;;;;;;;;27.10;52.60;;;;;;5131506;28;19975;-58
2021/07/03 04:00:12;;;;;;;;;;;27.20;52.60;;;;;;5130933;28;20325;-58
2021/07/03 04:02:39;;;;;;;;;;;27.20;52.60;;;;;;5130631;27;19929;-58
2021/07/03 04:05:08;;;;;;;;;;;27.20;52.60;;;;;;5134086;27;19931;-59
2021/07/03 04:07:35;;;;;;;;;;;27.20;52.60;;;;;;5134546;27;19975;-57
2021/07/03 04:10:07;;;;;;;;;;;27.20;52.50;;;;;;5135718;27;19973;-58
2021/07/03 04:12:34;;;;;;;;;;;27.20;52.50;;;;;;5135522;27;19924;-58
2021/07/03 04:15:02;;;;;;;;;;;27.20;52.50;;;;;;5120874;27;20006;-58
2021/07/03 04:17:29;;;;;;;;;;;27.20;52.40;;;;;;5130630;27;20386;-58
2021/07/03 04:19:56;;;;;;;;;;;27.20;52.40;;;;;;5121345;27;19923;-58
2021/07/03 04:22:23;;;;;;;;;;;27.20;52.30;;;;;;5129654;27;19924;-58
2021/07/03 04:24:50;;;;;;;;;;;27.30;52.30;;;;;;5133705;27;19927;-58
2021/07/03 04:27:17;;;;;;;;;;;27.30;52.20;;;;;;5133869;27;20440;-58
2021/07/03 04:29:44;;;;;;;;;;;27.30;52.20;;;;;;5132134;27;19923;-58
2021/07/03 04:32:11;;;;;;;;;;;27.30;52.10;;;;;;5133845;27;19928;-58
2021/07/03 04:34:38;;;;;;;;;;;27.30;52.10;;;;;;5134918;27;20268;-58
2021/07/03 04:37:05;;;;;;;;;;;27.30;52.10;;;;;;5123819;27;20423;-58
2021/07/03 04:39:32;;;;;;;;;;;27.30;52.00;;;;;;5135177;27;19966;-58
2021/07/03 04:41:59;;;;;;;;;;;27.40;52.00;;;;;;5134805;27;19973;-58
2021/07/03 04:44:26;;;;;;;;;;;27.40;51.90;;;;;;5132431;27;20054;-58
2021/07/03 04:46:53;;;;;;;;;;;27.40;51.80;;;;;;5133731;27;19985;-58
2021/07/03 04:49:21;;;;;;;;;;;27.50;51.70;;;;;;5133755;27;20325;-58
2021/07/03 04:51:48;;;;;;;;;;;27.50;51.60;;;;;;5132141;27;19924;-58
2021/07/03 04:54:15;;;;;;;;;;;27.50;51.50;;;;;;5115181;28;19924;-58
2021/07/03 04:56:43;;;;;;;;;;;27.60;51.50;;;;;;5134343;27;20215;-58
2021/07/03 04:59:10;;;;;;;;;;;27.60;51.40;;;;;;5134104;27;19927;-58
2021/07/03 05:01:37;;;;;;;;;;;27.60;51.30;;;;;;5133773;27;19984;-59
2021/07/03 05:04:04;;;;;;;;;;;27.60;51.30;;;;;;5132094;27;19959;-59
2021/07/03 05:06:31;;;;;;;;;;;27.70;51.20;;;;;;5135206;27;19967;-59
2021/07/03 05:08:58;;;;;;;;;;;27.70;51.10;;;;;;5133904;27;20006;-59
2021/07/03 05:11:25;;;;;;;;;;;27.70;51.10;;;;;;5118759;27;19967;-58
2021/07/03 05:13:52;;;;;;;;;;;27.70;51.00;;;;;;5129209;27;20344;-58
2021/07/03 05:16:19;;;;;;;;;;;27.80;51.00;;;;;;5135142;27;19924;-58
2021/07/03 05:18:46;;;;;;;;;;;27.80;51.00;;;;;;5133678;27;20379;-58
2021/07/03 05:21:13;;;;;;;;;;;27.80;50.90;;;;;;5134079;27;19923;-58
2021/07/03 05:23:40;;;;;;;;;;;27.80;50.90;;;;;;5131842;27;19951;-58
2021/07/03 05:26:07;;;;;;;;;;;27.80;50.90;;;;;;5131274;27;19970;-59
2021/07/03 05:28:34;;;;;;;;;;;27.90;50.90;;;;;;5133515;27;20416;-58
2021/07/03 05:31:01;;;;;;;;;;;27.90;50.90;;;;;;5132823;27;19988;-58
2021/07/03 05:33:28;;;;;;;;;;;27.90;50.90;;;;;;5132515;27;19923;-58
2021/07/03 05:35:55;;;;;;;;;;;27.90;50.90;;;;;;5131845;27;20271;-58
2021/07/03 05:38:22;;;;;;;;;;;27.90;50.90;;;;;;5131055;27;19971;-58
2021/07/03 05:40:49;;;;;;;;;;;27.90;50.90;;;;;;5131687;27;19995;-58
2021/07/03 05:43:16;;;;;;;;;;;27.90;50.90;;;;;;5133420;27;20347;-58
2021/07/03 05:45:43;;;;;;;;;;;27.90;50.90;;;;;;5130949;27;19972;-58
2021/07/03 05:48:10;;;;;;;;;;;28.00;50.90;;;;;;5131835;27;19923;-58
2021/07/03 05:50:37;;;;;;;;;;;28.00;51.00;;;;;;5132072;27;19959;-58
2021/07/03 05:53:04;;;;;;;;;;;28.00;51.00;;;;;;5134126;27;19968;-59
2021/07/03 05:55:31;;;;;;;;;;;28.00;51.00;;;;;;5132234;27;19969;-58
2021/07/03 05:57:58;;;;;;;;;;;28.00;51.00;;;;;;5133224;27;19947;-58
2021/07/03 06:00:25;;;;;;;;;;;28.00;51.00;;;;;;5130495;27;19969;-58
2021/07/03 06:02:52;;;;;;;;;;;28.00;51.00;;;;;;5112461;27;19958;-58
2021/07/03 06:05:22;;;;;;;;;;;28.00;51.00;;;;;;5133407;27;19951;-58
2021/07/03 06:07:49;;;;;;;;;;;28.00;51.00;;;;;;5133206;27;19974;-58
2021/07/03 06:10:16;;;;;;;;;;;28.00;51.00;;;;;;5133011;27;19924;-58
2021/07/03 06:12:43;;;;;;;;;;;28.10;51.00;;;;;;5131585;27;19967;-53
2021/07/03 06:15:12;;;;;;;;;;;28.10;51.00;;;;;;5114977;27;20379;-58
2021/07/03 06:17:39;;;;;;;;;;;28.10;51.10;;;;;;5130968;27;19968;-58
2021/07/03 06:20:08;;;;;;;;;;;28.10;51.20;;;;;;5130517;27;20329;-58
2021/07/03 06:22:36;;;;;;;;;;;28.10;51.20;;;;;;5131347;27;19974;-58
2021/07/03 06:25:05;;;;;;;;;;;28.10;51.20;;;;;;5130606;27;19946;-58
2021/07/03 06:27:32;;;;;;;;;;;28.10;51.20;;;;;;5128693;27;19923;-58
2021/07/03 06:29:59;;;;;;;;;;;28.10;51.20;;;;;;5115483;27;19924;-58
2021/07/03 06:32:26;;;;;;;;;;;28.10;51.20;;;;;;5129650;27;19923;-58
2021/07/03 06:34:53;;;;;;;;;;;28.10;51.20;;;;;;5118545;27;19927;-58
2021/07/03 06:37:20;;;;;;;;;;;28.10;51.30;;;;;;5129773;27;19965;-58
2021/07/03 06:39:47;;;;;;;;;;;28.10;51.30;;;;;;5131484;27;20021;-58
2021/07/03 06:42:14;;;;;;;;;;;28.10;51.30;;;;;;5132440;27;19930;-58
2021/07/03 06:44:44;;;;;;;;;;;28.10;51.30;;;;;;5130994;27;20287;-58
2021/07/03 06:47:14;;;;;;;;;;;28.10;51.40;;;;;;5113484;28;20333;-58
2021/07/03 06:49:42;;;;;;;;;;;28.10;51.50;;;;;;5131228;27;19924;-58
2021/07/03 06:52:09;;;;;;;;;;;28.10;51.50;;;;;;5131081;27;19923;-58
2021/07/03 06:54:37;;;;;;;;;;;28.10;51.50;;;;;;5113978;28;19923;-58
2021/07/03 06:57:04;;;;;;;;;;;28.10;51.60;;;;;;5130552;27;20549;-58
2021/07/03 06:59:32;;;;;;;;;;;28.10;51.60;;;;;;5130561;28;19967;-58
2021/07/03 07:02:00;;;;;;;;;;;28.10;51.60;;;;;;5133204;28;19966;-58
2021/07/03 07:04:27;;;;;;;;;;;28.10;51.70;;;;;;5132734;28;19931;-58
2021/07/03 07:06:56;;;;;;;;;;;28.10;51.70;;;;;;5132313;28;20379;-57
2021/07/03 07:09:26;;;;;;;;;;;28.10;51.70;;;;;;5132475;28;19927;-57
2021/07/03 07:11:57;;;;;;;;;;;28.10;51.80;;;;;;5132392;28;19927;-58
2021/07/03 07:14:24;;;;;;;;;;;28.10;51.80;;;;;;5132932;28;19923;-58
2021/07/03 07:16:51;;;;;;;;;;;28.10;51.80;;;;;;5129913;28;20002;-59
2021/07/03 07:19:18;;;;;;;;;;;28.10;51.80;;;;;;5133441;28;20339;-58
2021/07/03 07:21:45;;;;;;;;;;;28.10;51.80;;;;;;5130908;28;19978;-58
2021/07/03 07:24:12;;;;;;;;;;;28.10;51.90;;;;;;5130900;28;19923;-58
2021/07/03 07:26:39;;;;;;;;;;;28.10;51.90;;;;;;5131360;28;19947;-58
2021/07/03 07:29:06;;;;;;;;;;;28.10;51.90;;;;;;5129666;28;20289;-58
2021/07/03 07:31:33;;;;;;;;;;;28.10;51.90;;;;;;5131973;28;19931;-58
2021/07/03 07:34:01;;;;;;;;;;;28.10;52.00;;;;;;5132242;28;20316;-58
2021/07/03 07:36:28;;;;;;;;;;;28.10;52.00;;;;;;5128878;28;19924;-58
2021/07/03 07:38:55;;;;;;;;;;;28.10;52.00;;;;;;5134102;27;19923;-58
2021/07/03 07:41:22;;;;;;;;;;;28.10;52.00;;;;;;5135674;27;20395;-57
2021/07/03 07:43:49;;;;;;;;;;;28.10;52.00;;;;;;5134462;27;20376;-58
2021/07/03 07:46:16;;;;;;;;;;;28.10;52.00;;;;;;5134705;27;19924;-58
2021/07/03 07:48:43;;;;;;;;;;;28.10;52.00;;;;;;5136300;27;19927;-58
2021/07/03 07:51:10;;;;;;;;;;;28.10;52.00;;;;;;5117566;27;19972;-58
2021/07/03 07:53:37;;;;;;;;;;;28.10;52.00;;;;;;5136716;27;20026;-58
2021/07/03 07:56:05;;;;;;;;;;;28.10;52.00;;;;;;5136022;27;19961;-58
2021/07/03 07:58:32;;;;;;;;;;;28.20;52.00;;;;;;5132906;27;19972;-58
2021/07/03 08:00:59;;;;;;;;;;;28.20;52.00;;;;;;5120037;27;19928;-58
2021/07/03 08:03:25;;;;;;;;;;;28.20;52.00;;;;;;5112268;27;19976;-59
2021/07/03 08:05:52;;;;;;;;;;;28.20;52.00;;;;;;5132897;27;19923;-59
2021/07/03 08:08:20;;;;;;;;;;;28.20;52.00;;;;;;5134522;27;19923;-59
2021/07/03 08:10:46;;;;;;;;;;;28.20;52.00;;;;;;5132658;27;20355;-59
2021/07/03 08:13:13;;;;;;;;;;;28.20;52.00;;;;;;5133811;27;19971;-57
2021/07/03 08:15:40;;;;;;;;;;;28.20;52.00;;;;;;5134883;27;19968;-57
2021/07/03 08:18:07;;;;;;;;;;;28.20;52.00;;;;;;5134034;27;19970;-58
2021/07/03 08:20:35;;;;;;;;;;;28.20;52.00;;;;;;5134460;27;20340;-57
2021/07/03 08:23:02;;;;;;;;;;;28.20;51.90;;;;;;5134638;27;19923;-58
2021/07/03 08:25:29;;;;;;;;;;;28.20;51.90;;;;;;5136102;27;19924;-57
2021/07/03 08:27:56;;;;;;;;;;;28.20;51.90;;;;;;5134810;27;19931;-57
2021/07/03 08:30:24;;;;;;;;;;;28.20;51.90;;;;;;5132873;27;19973;-58
2021/07/03 08:32:52;;;;;;;;;;;28.20;51.90;;;;;;5132827;27;19924;-57
2021/07/03 08:35:19;;;;;;;;;;;28.20;51.90;;;;;;5132542;27;19931;-57
2021/07/03 08:37:46;;;;;;;;;;;28.20;51.90;;;;;;5117939;27;20025;-58
2021/07/03 08:40:14;;;;;;;;;;;28.20;51.90;;;;;;5119031;27;20374;-57
2021/07/03 08:42:41;;;;;;;;;;;28.30;51.90;;;;;;5116443;27;19969;-58
2021/07/03 08:45:10;;;;;;;;;;;28.20;51.80;;;;;;5116526;27;19924;-58
2021/07/03 08:47:41;;;;;;;;;;;28.20;51.80;;;;;;5135853;27;20015;-58
2021/07/03 08:50:09;;;;;;;;;;;28.20;51.80;;;;;;5134468;27;19923;-58
2021/07/03 08:52:36;;;;;;;;;;;28.20;51.90;;;;;;5135312;27;19923;-58
2021/07/03 08:55:13;;;;;;;;;;;28.20;51.80;;;;;;5134592;27;19923;-58
2021/07/03 08:57:47;;;;;;;;;;;28.20;51.80;;;;;;5134652;27;19966;-58
2021/07/03 09:00:16;;;;;;;;;;;28.30;51.90;;;;;;5133610;27;20378;-58
2021/07/03 09:02:44;;;;;;;;;;;28.30;51.80;;;;;;5117650;27;19923;-58
2021/07/03 09:05:21;;;;;;;;;;;28.30;51.80;;;;;;5130578;27;19928;-58
2021/07/03 09:07:49;;;;;;;;;;;28.30;51.80;;;;;;5132903;27;20379;-58
2021/07/03 09:10:20;;;;;;;;;;;28.30;51.80;;;;;;5133754;27;19978;-58
2021/07/03 09:12:48;;;;;;;;;;;28.30;51.80;;;;;;5133041;27;20480;-58
2021/07/03 09:15:17;;;;;;;;;;;28.30;51.80;;;;;;5132911;27;20423;-58
2021/07/03 09:17:48;;;;;;;;;;;28.30;51.80;;;;;;5131392;27;20371;-58
2021/07/03 09:20:22;;;;;;;;;;;28.30;51.80;;;;;;5132163;27;20327;-58
2021/07/03 09:22:49;;;;;;;;;;;28.20;51.80;;;;;;5133128;27;19923;-57
2021/07/03 09:25:17;;;;;;;;;;;28.20;51.80;;;;;;5132635;27;20313;-57
2021/07/03 09:27:44;;;;;;;;;;;28.20;51.80;;;;;;5132266;27;19932;-58
2021/07/03 09:30:11;;;;;;;;;;;28.20;51.80;;;;;;5131594;27;20344;-58
2021/07/03 09:32:38;;;;;;;;;;;28.30;51.80;;;;;;5131204;27;20444;-58
2021/07/03 09:35:07;;;;;;;;;;;28.30;51.80;;;;;;5133129;27;19923;-58
2021/07/03 09:37:35;;;;;;;;;;;28.30;51.80;;;;;;5132534;27;20271;-58
2021/07/03 09:40:05;;;;;;;;;;;28.30;51.80;;;;;;5132485;27;20283;-58
2021/07/03 09:42:36;;;;;;;;;;;28.30;51.80;;;;;;5116636;27;20006;-58
2021/07/03 09:45:05;;;;;;;;;;;28.30;51.80;;;;;;5114570;27;19927;-58
2021/07/03 09:47:33;;;;;;;;;;;28.30;51.80;;;;;;5131922;27;19923;-58
2021/07/03 09:50:08;;;;;;;;;;;28.30;51.70;;;;;;5129765;27;20325;-58
2021/07/03 09:52:36;;;;;;;;;;;28.30;51.70;;;;;;5120421;27;19964;-58
2021/07/03 09:55:07;;;;;;;;;;;28.30;51.70;;;;;;5131071;27;19931;-58
2021/07/03 09:57:37;;;;;;;;;;;28.30;51.70;;;;;;5085198;27;19935;-58
2021/07/03 10:00:09;;;;;;;;;;;28.30;51.60;;;;;;5133276;27;19923;-59
2021/07/03 10:02:43;;;;;;;;;;;28.30;51.60;;;;;;5130324;27;19935;-58
2021/07/03 10:05:10;;;;;;;;;;;28.30;51.60;;;;;;5113066;27;19973;-58
2021/07/03 10:07:40;;;;;;;;;;;28.30;51.60;;;;;;5118403;27;20340;-59
2021/07/03 10:10:16;;;;;;;;;;;28.30;51.60;;;;;;5134205;27;19923;-58
2021/07/03 10:12:44;;;;;;;;;;;28.30;51.60;;;;;;5130652;27;19971;-58
2021/07/03 10:15:25;;;;;;;;;;;28.30;51.60;;;;;;5132662;27;19924;-59
2021/07/03 10:17:52;;;;;;;;;;;28.30;51.60;;;;;;5132224;27;19924;-59
2021/07/03 10:20:19;;;;;;;;;;;28.30;51.60;;;;;;5133948;27;19976;-59
2021/07/03 10:22:53;;;;;;;;;;;28.30;51.60;;;;;;5115528;28;20379;-58
2021/07/03 10:25:30;;;;;;;;;;;28.30;51.60;;;;;;5114937;27;19977;-58
2021/07/03 10:27:58;;;;;;;;;;;28.30;51.70;;;;;;5114673;27;20804;-58
2021/07/03 10:30:26;;;;;;;;;;;28.30;51.70;;;;;;5113784;27;20343;-58
2021/07/03 10:32:57;;;;;;;;;;;28.20;51.60;;;;;;5113777;27;20358;-58
2021/07/03 10:35:24;;;;;;;;;;;28.30;51.60;;;;;;5131617;27;19978;-58
2021/07/03 10:37:52;;;;;;;;;;;28.30;51.60;;;;;;5133006;27;19966;-58
2021/07/03 10:40:24;;;;;;;;;;;28.20;51.60;;;;;;5131796;27;19924;-58
2021/07/03 10:42:53;;;;;;;;;;;28.20;51.60;;;;;;5132982;27;20317;-58
2021/07/03 10:45:23;;;;;;;;;;;28.20;51.60;;;;;;5131569;27;19924;-58
2021/07/03 10:47:53;;;;;;;;;;;28.20;51.50;;;;;;5131208;27;19927;-58
2021/07/03 10:50:22;;;;;;;;;;;28.20;51.50;;;;;;5117349;27;19923;-58
2021/07/03 10:52:50;;;;;;;;;;;28.30;51.60;;;;;;5115677;28;20349;-58
2021/07/03 10:55:26;;;;;;;;;;;28.30;51.50;;;;;;5127475;27;19930;-58
2021/07/03 10:57:53;;;;;;;;;;;28.30;51.50;;;;;;5131172;27;19963;-58
2021/07/03 11:00:22;;;;;;;;;;;28.30;51.50;;;;;;5133504;28;19931;-58
2021/07/03 11:02:48;;;;;;;;;;;28.30;51.50;;;;;;5133886;28;19992;-58
2021/07/03 11:05:16;;;;;;;;;;;28.30;51.50;;;;;;5132644;28;20405;-59
2021/07/03 11:07:43;;;;;;;;;;;28.30;51.50;;;;;;5133405;28;20003;-58
2021/07/03 11:10:12;;;;;;;;;;;28.20;51.40;;;;;;5124276;28;19931;-58
2021/07/03 11:12:50;;;;;;;;;;;28.20;51.40;;;;;;5124448;27;20047;-59
2021/07/03 11:15:18;;;;;;;;;;;28.20;51.40;;;;;;5135349;27;20341;-58
2021/07/03 11:17:45;;;;;;;;;;;28.20;51.40;;;;;;5135281;27;19924;-59
2021/07/03 11:20:22;;;;;;;;;;;28.20;51.40;;;;;;5135797;27;19924;-58
2021/07/03 11:22:49;;;;;;;;;;;28.20;51.40;;;;;;5134045;27;20006;-58
2021/07/03 11:25:26;;;;;;;;;;;28.20;51.40;;;;;;5116633;27;19966;-58
2021/07/03 11:28:02;;;;;;;;;;;28.20;51.40;;;;;;5135735;27;19924;-58
2021/07/03 11:30:29;;;;;;;;;;;28.20;51.40;;;;;;5136328;27;19923;-59
2021/07/03 11:32:57;;;;;;;;;;;28.20;51.40;;;;;;5133671;27;19981;-59
2021/07/03 11:35:25;;;;;;;;;;;28.20;51.40;;;;;;5112090;27;19992;-59
2021/07/03 11:37:52;;;;;;;;;;;28.20;51.40;;;;;;5121107;27;19970;-59
2021/07/03 11:40:24;;;;;;;;;;;28.20;51.40;;;;;;5135256;27;19928;-59
2021/07/03 11:42:52;;;;;;;;;;;28.20;51.40;;;;;;5132787;27;19994;-59
2021/07/03 11:45:22;;;;;;;;;;;28.20;51.30;;;;;;5121305;27;19970;-59
2021/07/03 11:47:53;;;;;;;;;;;28.20;51.30;;;;;;5135077;27;19931;-59
2021/07/03 11:50:20;;;;;;;;;;;28.20;51.30;;;;;;5119231;27;19924;-59
2021/07/03 11:52:52;;;;;;;;;;;28.20;51.30;;;;;;5117100;28;19973;-59
2021/07/03 11:55:20;;;;;;;;;;;28.20;51.30;;;;;;5135478;27;19970;-59
2021/07/03 11:57:47;;;;;;;;;;;28.20;51.30;;;;;;5119343;27;19986;-59
2021/07/03 12:00:19;;;;;;;;;;;28.20;51.20;;;;;;5099179;27;19963;-59
2021/07/03 12:02:47;;;;;;;;;;;28.20;51.20;;;;;;5135190;27;19924;-59
2021/07/03 12:05:14;;;;;;;;;;;28.20;51.20;;;;;;5135080;27;20333;-59
2021/07/03 12:07:41;;;;;;;;;;;28.20;51.20;;;;;;5119078;27;19924;-59
2021/07/03 12:10:10;;;;;;;;;;;28.20;51.10;;;;;;5134528;27;19924;-59
2021/07/03 12:12:38;;;;;;;;;;;28.20;51.10;;;;;;5133916;27;20411;-59
2021/07/03 12:15:07;;;;;;;;;;;28.20;51.10;;;;;;5132782;27;19953;-59
2021/07/03 12:17:35;;;;;;;;;;;28.30;51.10;;;;;;5119788;27;19928;-59
2021/07/03 12:20:09;;;;;;;;;;;28.30;51.10;;;;;;5111760;27;19969;-59
2021/07/03 12:22:38;;;;;;;;;;;28.30;51.10;;;;;;5134105;27;19970;-59
2021/07/03 12:25:12;;;;;;;;;;;28.30;51.10;;;;;;5133468;27;20042;-59
2021/07/03 12:27:40;;;;;;;;;;;28.30;51.10;;;;;;5134961;27;19923;-59
2021/07/03 12:30:08;;;;;;;;;;;28.30;51.00;;;;;;5133467;27;19978;-59
2021/07/03 12:32:43;;;;;;;;;;;28.30;51.10;;;;;;5133924;27;20354;-59
2021/07/03 12:35:11;;;;;;;;;;;28.30;51.00;;;;;;5131270;27;19927;-59
2021/07/03 12:37:39;;;;;;;;;;;28.30;51.00;;;;;;5130192;27;20023;-59
2021/07/03 12:40:17;;;;;;;;;;;28.30;51.00;;;;;;5133693;27;19940;-59
2021/07/03 12:42:44;;;;;;;;;;;28.30;50.90;;;;;;5123024;27;19924;-59
2021/07/03 12:45:11;;;;;;;;;;;28.30;50.90;;;;;;5116769;27;19939;-59
2021/07/03 12:47:39;;;;;;;;;;;28.30;50.80;;;;;;5125248;27;19962;-59
2021/07/03 12:50:07;;;;;;;;;;;28.30;50.90;;;;;;5128309;27;19931;-59
2021/07/03 12:52:36;;;;;;;;;;;28.30;50.90;;;;;;5135996;27;20422;-59
2021/07/03 12:55:04;;;;;;;;;;;28.30;50.90;;;;;;5133204;27;20437;-59
2021/07/03 12:57:41;;;;;;;;;;;28.30;50.90;;;;;;5117108;27;19923;-59
2021/07/03 13:00:09;;;;;;;;;;;28.30;50.90;;;;;;5134445;27;19924;-59
2021/07/03 13:02:36;;;;;;;;;;;28.30;50.90;;;;;;5131859;27;19976;-57
2021/07/03 13:05:05;;;;;;;;;;;28.30;50.90;;;;;;5132909;27;19923;-57
2021/07/03 13:07:32;;;;;;;;;;;28.30;50.90;;;;;;5135494;27;19930;-58
2021/07/03 13:10:00;;;;;;;;;;;28.30;50.90;;;;;;5131718;27;19967;-58
2021/07/03 13:12:29;;;;;;;;;;;28.20;50.90;;;;;;5134594;27;19980;-58
2021/07/03 13:14:56;;;;;;;;;;;28.20;50.90;;;;;;5134436;27;20300;-58
2021/07/03 13:17:23;;;;;;;;;;;28.20;50.90;;;;;;5133519;27;19970;-58
2021/07/03 13:19:50;;;;;;;;;;;28.20;50.90;;;;;;5135228;27;19923;-58
2021/07/03 13:22:17;;;;;;;;;;;28.20;50.90;;;;;;5133149;27;19923;-58
2021/07/03 13:24:44;;;;;;;;;;;28.20;50.90;;;;;;5133054;27;19923;-59
2021/07/03 13:27:11;;;;;;;;;;;28.30;50.90;;;;;;5132088;27;20418;-58
2021/07/03 13:29:38;;;;;;;;;;;28.20;50.80;;;;;;5117552;27;19971;-58
2021/07/03 13:32:07;;;;;;;;;;;28.20;50.80;;;;;;5130916;27;19967;-58
2021/07/03 13:34:35;;;;;;;;;;;28.30;50.90;;;;;;5132494;27;19934;-58
2021/07/03 13:37:03;;;;;;;;;;;28.20;50.80;;;;;;5130886;27;19976;-58
2021/07/03 13:39:30;;;;;;;;;;;28.20;50.80;;;;;;5119586;27;19928;-58
2021/07/03 13:41:57;;;;;;;;;;;28.20;50.80;;;;;;5128780;27;20006;-58
2021/07/03 13:44:24;;;;;;;;;;;28.20;50.80;;;;;;5121676;27;19927;-58
2021/07/03 13:46:51;;;;;;;;;;;28.20;50.80;;;;;;5122187;27;19972;-58
2021/07/03 13:49:18;;;;;;;;;;;28.20;50.80;;;;;;5132248;27;19982;-58
2021/07/03 13:51:45;;;;;;;;;;;28.20;50.80;;;;;;5126840;27;19973;-57
2021/07/03 13:54:12;;;;;;;;;;;28.20;50.80;;;;;;5116598;27;19970;-58
2021/07/03 13:56:39;;;;;;;;;;;28.20;50.80;;;;;;5116577;27;19969;-58
2021/07/03 13:59:06;;;;;;;;;;;28.20;50.80;;;;;;5119754;27;20005;-57
2021/07/03 14:01:34;;;;;;;;;;;28.20;50.80;;;;;;5130137;27;19978;-58
2021/07/03 14:04:03;;;;;;;;;;;28.20;50.80;;;;;;5119161;27;19988;-57
2021/07/03 14:06:33;;;;;;;;;;;28.20;50.70;;;;;;5130547;27;19928;-57
2021/07/03 14:09:01;;;;;;;;;;;28.20;50.80;;;;;;5133844;27;20287;-57
2021/07/03 14:11:28;;;;;;;;;;;28.20;50.70;;;;;;5131939;27;20263;-57
2021/07/03 14:13:55;;;;;;;;;;;28.20;50.70;;;;;;5115972;27;19974;-57
2021/07/03 14:16:24;;;;;;;;;;;28.20;50.70;;;;;;5115230;27;20064;-58
2021/07/03 14:18:51;;;;;;;;;;;28.20;50.80;;;;;;5132622;27;19927;-58
2021/07/03 14:21:18;;;;;;;;;;;28.20;50.80;;;;;;5115257;27;20332;-58